sensor_id;sensor_type;location;lat;lon;timestamp;pressure;altitude;pressure_sealevel;temperature;humidity
19797;BME280;10058;57.654;12.044;2023-03-01T00:01:44;102450.28;;;0.50;100.00
19797;BME280;10058;57.654;12.044;2023-03-01T00:04:09;102443.25;;;0.49;100.00
19797;BME280;10058;57.654;12.044;2023-03-01T00:06:35;102445.63;;;0.56;100.00
19797;BME280;10058;57.654;12.044;2023-03-01T00:09:00;102444.78;;;0.47;100.00
19797;BME280;10058;57.654;12.044;2023-03-01T00:11:27;102450.00;;;0.47;100.00
19797;BME280;10058;57.654;12.044;2023-03-01T00:13:55;102442.66;;;0.43;100.00
19797;BME280;10058;57.654;12.044;2023-03-01T00:16:29;102439.78;;;0.40;100.00
19797;BME280;10058;57.654;12.044;2023-03-01T00:18:56;102444.97;;;0.40;100.00
19797;BME280;10058;57.654;12.044;2023-03-01T00:21:22;102454.31;;;0.38;100.00
19797;BME280;10058;57.654;12.044;2023-03-01T00:23:47;102440.25;;;0.36;100.00
19797;BME280;10058;57.654;12.044;2023-03-01T00:26:14;102465.00;;;0.41;100.00
19797;BME280;10058;57.654;12.044;2023-03-01T00:28:40;102445.19;;;0.33;100.00
19797;BME280;10058;57.654;12.044;2023-03-01T00:31:11;102462.41;;;0.41;100.00
19797;BME280;10058;57.654;12.044;2023-03-01T00:33:36;102449.41;;;0.41;100.00
19797;BME280;10058;57.654;12.044;2023-03-01T00:36:02;102454.59;;;0.41;100.00
19797;BME280;10058;57.654;12.044;2023-03-01T00:38:28;102455.81;;;0.45;100.00
19797;BME280;10058;57.654;12.044;2023-03-01T00:40:54;102465.31;;;0.44;100.00
19797;BME280;10058;57.654;12.044;2023-03-01T00:43:19;102458.34;;;0.34;100.00
19797;BME280;10058;57.654;12.044;2023-03-01T00:45:45;102463.56;;;0.26;100.00
19797;BME280;10058;57.654;12.044;2023-03-01T00:48:10;102460.47;;;0.30;100.00
19797;BME280;10058;57.654;12.044;2023-03-01T00:50:35;102464.63;;;0.28;100.00
19797;BME280;10058;57.654;12.044;2023-03-01T00:53:01;102467.00;;;0.08;100.00
19797;BME280;10058;57.654;12.044;2023-03-01T00:55:26;102459.50;;;0.11;100.00
19797;BME280;10058;57.654;12.044;2023-03-01T00:57:52;102455.66;;;0.16;100.00
19797;BME280;10058;57.654;12.044;2023-03-01T01:00:19;102461.13;;;0.19;100.00
19797;BME280;10058;57.654;12.044;2023-03-01T01:02:45;102463.16;;;0.13;100.00
19797;BME280;10058;57.654;12.044;2023-03-01T01:05:10;102454.59;;;0.14;100.00
19797;BME280;10058;57.654;12.044;2023-03-01T01:07:36;102446.50;;;0.11;100.00
19797;BME280;10058;57.654;12.044;2023-03-01T01:10:01;102450.78;;;0.02;100.00
19797;BME280;10058;57.654;12.044;2023-03-01T01:12:27;102457.66;;;0.10;100.00
19797;BME280;10058;57.654;12.044;2023-03-01T01:14:52;102460.88;;;0.07;100.00
19797;BME280;10058;57.654;12.044;2023-03-01T01:17:18;102459.09;;;-0.03;100.00
19797;BME280;10058;57.654;12.044;2023-03-01T01:19:44;102458.75;;;0.03;100.00
19797;BME280;10058;57.654;12.044;2023-03-01T01:22:09;102466.38;;;0.02;100.00
19797;BME280;10058;57.654;12.044;2023-03-01T01:24:35;102444.41;;;-0.02;100.00
19797;BME280;10058;57.654;12.044;2023-03-01T01:27:00;102459.97;;;0.07;100.00
19797;BME280;10058;57.654;12.044;2023-03-01T01:29:25;102451.09;;;0.05;100.00
19797;BME280;10058;57.654;12.044;2023-03-01T01:31:51;102451.09;;;0.05;100.00
19797;BME280;10058;57.654;12.044;2023-03-01T01:34:19;102448.97;;;0.00;100.00
19797;BME280;10058;57.654;12.044;2023-03-01T01:36:48;102450.78;;;0.02;100.00
19797;BME280;10058;57.654;12.044;2023-03-01T01:39:14;102443.50;;;-0.03;100.00
19797;BME280;10058;57.654;12.044;2023-03-01T01:41:41;102446.56;;;-0.07;100.00
19797;BME280;10058;57.654;12.044;2023-03-01T01:44:13;102429.91;;;-0.17;100.00
19797;BME280;10058;57.654;12.044;2023-03-01T01:47:06;102441.88;;;-0.28;100.00
19797;BME280;10058;57.654;12.044;2023-03-01T01:49:51;102446.16;;;-0.20;100.00
19797;BME280;10058;57.654;12.044;2023-03-01T01:52:23;102444.47;;;-0.19;100.00
19797;BME280;10058;57.654;12.044;2023-03-01T01:55:07;102433.44;;;-0.17;100.00
19797;BME280;10058;57.654;12.044;2023-03-01T01:57:37;102435.25;;;-0.16;100.00
19797;BME280;10058;57.654;12.044;2023-03-01T02:00:07;102436.03;;;-0.17;100.00
19797;BME280;10058;57.654;12.044;2023-03-01T02:02:34;102441.72;;;-0.21;100.00
19797;BME280;10058;57.654;12.044;2023-03-01T02:05:12;102439.59;;;-0.25;100.00
19797;BME280;10058;57.654;12.044;2023-03-01T02:07:40;102430.72;;;-0.27;100.00
19797;BME280;10058;57.654;12.044;2023-03-01T02:10:08;102429.50;;;-0.30;100.00
19797;BME280;10058;57.654;12.044;2023-03-01T02:12:34;102425.84;;;-0.32;100.00
19797;BME280;10058;57.654;12.044;2023-03-01T02:14:59;102426.47;;;-0.35;100.00
19797;BME280;10058;57.654;12.044;2023-03-01T02:17:24;102414.09;;;-0.46;100.00
19797;BME280;10058;57.654;12.044;2023-03-01T02:22:28;102410.44;;;-0.40;100.00
19797;BME280;10058;57.654;12.044;2023-03-01T02:27:43;102408.56;;;-0.32;100.00
19797;BME280;10058;57.654;12.044;2023-03-01T02:30:12;102403.88;;;-0.36;100.00
19797;BME280;10058;57.654;12.044;2023-03-01T02:32:39;102410.59;;;-0.38;100.00
19797;BME280;10058;57.654;12.044;2023-03-01T02:35:10;102414.25;;;-0.36;100.00
19797;BME280;10058;57.654;12.044;2023-03-01T02:37:37;102408.16;;;-0.37;100.00
19797;BME280;10058;57.654;12.044;2023-03-01T02:40:08;102412.44;;;-0.37;100.00
19797;BME280;10058;57.654;12.044;2023-03-01T02:43:00;102409.53;;;-0.40;100.00
19797;BME280;10058;57.654;12.044;2023-03-01T02:45:26;102410.28;;;-0.41;100.00
19797;BME280;10058;57.654;12.044;2023-03-01T02:47:55;102404.78;;;-0.44;100.00
19797;BME280;10058;57.654;12.044;2023-03-01T02:53:21;102407.22;;;-0.46;100.00
19797;BME280;10058;57.654;12.044;2023-03-01T02:55:48;102411.50;;;-0.46;100.00
19797;BME280;10058;57.654;12.044;2023-03-01T02:58:14;102414.88;;;-0.47;100.00
19797;BME280;10058;57.654;12.044;2023-03-01T03:00:41;102415.81;;;-0.55;100.00
19797;BME280;10058;57.654;12.044;2023-03-01T03:03:20;102414.56;;;-0.50;100.00
19797;BME280;10058;57.654;12.044;2023-03-01T03:05:45;102411.22;;;-0.49;100.00
19797;BME280;10058;57.654;12.044;2023-03-01T03:08:11;102399.75;;;-0.51;100.00
19797;BME280;10058;57.654;12.044;2023-03-01T03:10:39;102408.16;;;-0.45;100.00
19797;BME280;10058;57.654;12.044;2023-03-01T03:13:07;102400.81;;;-0.49;100.00
19797;BME280;10058;57.654;12.044;2023-03-01T03:15:33;102410.94;;;-0.52;100.00
19797;BME280;10058;57.654;12.044;2023-03-01T03:18:02;102396.41;;;-0.59;100.00
19797;BME280;10058;57.654;12.044;2023-03-01T03:20:28;102403.25;;;-0.51;100.00
19797;BME280;10058;57.654;12.044;2023-03-01T03:22:55;102402.66;;;-0.48;100.00
19797;BME280;10058;57.654;12.044;2023-03-01T03:25:22;102394.84;;;-0.48;100.00
19797;BME280;10058;57.654;12.044;2023-03-01T03:27:49;102397.16;;;-0.51;100.00
19797;BME280;10058;57.654;12.044;2023-03-01T03:30:17;102401.78;;;-0.57;100.00
19797;BME280;10058;57.654;12.044;2023-03-01T03:32:45;102397.03;;;-0.61;100.00
19797;BME280;10058;57.654;12.044;2023-03-01T03:35:21;102390.47;;;-0.66;100.00
19797;BME280;10058;57.654;12.044;2023-03-01T03:37:47;102394.13;;;-0.64;100.00
19797;BME280;10058;57.654;12.044;2023-03-01T03:40:30;102390.78;;;-0.63;100.00
19797;BME280;10058;57.654;12.044;2023-03-01T03:42:56;102387.41;;;-0.62;100.00
19797;BME280;10058;57.654;12.044;2023-03-01T03:45:21;102378.09;;;-0.60;100.00
19797;BME280;10058;57.654;12.044;2023-03-01T03:47:47;102377.94;;;-0.53;100.00
19797;BME280;10058;57.654;12.044;2023-03-01T03:50:14;102377.94;;;-0.53;100.00
19797;BME280;10058;57.654;12.044;2023-03-01T03:52:40;102386.91;;;-0.50;100.00
19797;BME280;10058;57.654;12.044;2023-03-01T03:55:06;102381.28;;;-0.54;100.00
19797;BME280;10058;57.654;12.044;2023-03-01T03:57:41;102376.56;;;-0.58;100.00
19797;BME280;10058;57.654;12.044;2023-03-01T04:00:09;102380.69;;;-0.60;100.00
19797;BME280;10058;57.654;12.044;2023-03-01T04:02:44;102384.34;;;-0.58;100.00
19797;BME280;10058;57.654;12.044;2023-03-01T04:05:12;102379.44;;;-0.47;100.00
19797;BME280;10058;57.654;12.044;2023-03-01T04:07:39;102381.72;;;-0.41;100.00
19797;BME280;10058;57.654;12.044;2023-03-01T04:10:08;102374.84;;;-0.41;100.00
19797;BME280;10058;57.654;12.044;2023-03-01T04:12:34;102380.03;;;-0.49;100.00
19797;BME280;10058;57.654;12.044;2023-03-01T04:15:03;102390.78;;;-0.55;100.00
19797;BME280;10058;57.654;12.044;2023-03-01T04:17:44;102386.94;;;-0.58;100.00
19797;BME280;10058;57.654;12.044;2023-03-01T04:20:18;102382.22;;;-0.62;100.00
19797;BME280;10058;57.654;12.044;2023-03-01T04:22:56;102392.59;;;-0.62;100.00
19797;BME280;10058;57.654;12.044;2023-03-01T04:25:38;102399.94;;;-0.67;100.00
19797;BME280;10058;57.654;12.044;2023-03-01T04:28:05;102405.47;;;-0.73;100.00
19797;BME280;10058;57.654;12.044;2023-03-01T04:30:30;102409.13;;;-0.79;100.00
19797;BME280;10058;57.654;12.044;2023-03-01T04:33:04;102407.44;;;-0.79;100.00
19797;BME280;10058;57.654;12.044;2023-03-01T04:35:30;102406.06;;;-0.75;100.00
19797;BME280;10058;57.654;12.044;2023-03-01T04:37:55;102394.75;;;-0.58;100.00
19797;BME280;10058;57.654;12.044;2023-03-01T04:40:21;102394.81;;;-0.31;100.00
19797;BME280;10058;57.654;12.044;2023-03-01T04:42:46;102385.41;;;-0.03;100.00
19797;BME280;10058;57.654;12.044;2023-03-01T04:45:12;102386.47;;;0.26;100.00
19797;BME280;10058;57.654;12.044;2023-03-01T04:47:42;102377.94;;;0.46;100.00
19797;BME280;10058;57.654;12.044;2023-03-01T04:50:08;102377.06;;;0.56;100.00
19797;BME280;10058;57.654;12.044;2023-03-01T04:52:34;102359.13;;;0.40;100.00
19797;BME280;10058;57.654;12.044;2023-03-01T04:55:00;102372.31;;;0.60;100.00
19797;BME280;10058;57.654;12.044;2023-03-01T04:57:26;102374.06;;;0.51;100.00
19797;BME280;10058;57.654;12.044;2023-03-01T04:59:51;102355.72;;;0.50;100.00
19797;BME280;10058;57.654;12.044;2023-03-01T05:02:16;102358.19;;;0.48;100.00
19797;BME280;10058;57.654;12.044;2023-03-01T05:04:42;102356.06;;;0.44;100.00
19797;BME280;10058;57.654;12.044;2023-03-01T05:07:07;102353.38;;;0.34;100.00
19797;BME280;10058;57.654;12.044;2023-03-01T05:09:32;102309.19;;;0.07;100.00
19797;BME280;10058;57.654;12.044;2023-03-01T05:11:57;102356.16;;;0.27;100.00
19797;BME280;10058;57.654;12.044;2023-03-01T05:14:23;102364.25;;;0.03;100.00
19797;BME280;10058;57.654;12.044;2023-03-01T05:16:48;102357.13;;;-0.09;100.00
19797;BME280;10058;57.654;12.044;2023-03-01T05:19:13;102360.34;;;-0.11;100.00
19797;BME280;10058;57.654;12.044;2023-03-01T05:21:47;102356.97;;;-0.10;100.00
19797;BME280;10058;57.654;12.044;2023-03-01T05:24:33;102353.38;;;-0.21;100.00
19797;BME280;10058;57.654;12.044;2023-03-01T05:26:59;102359.94;;;-0.24;100.00
19797;BME280;10058;57.654;12.044;2023-03-01T05:29:26;102361.94;;;-0.22;100.00
19797;BME280;10058;57.654;12.044;2023-03-01T05:31:56;102361.63;;;-0.25;100.00
19797;BME280;10058;57.654;12.044;2023-03-01T05:34:27;102359.03;;;-0.25;100.00
19797;BME280;10058;57.654;12.044;2023-03-01T05:36:53;102354.31;;;-0.29;100.00
19797;BME280;10058;57.654;12.044;2023-03-01T05:39:20;102356.81;;;-0.39;100.00
19797;BME280;10058;57.654;12.044;2023-03-01T05:41:46;102349.16;;;-0.46;100.00
19797;BME280;10058;57.654;12.044;2023-03-01T05:44:12;102350.41;;;-0.51;100.00
19797;BME280;10058;57.654;12.044;2023-03-01T05:46:37;102351.34;;;-0.59;100.00
19797;BME280;10058;57.654;12.044;2023-03-01T05:49:02;102342.44;;;-0.44;100.00
19797;BME280;10058;57.654;12.044;2023-03-01T05:51:29;102343.66;;;-0.41;100.00
19797;BME280;10058;57.654;12.044;2023-03-01T05:53:54;102347.31;;;-0.39;100.00
19797;BME280;10058;57.654;12.044;2023-03-01T05:56:19;102351.59;;;-0.39;100.00
19797;BME280;10058;57.654;12.044;2023-03-01T05:58:48;102352.69;;;-0.37;100.00
19797;BME280;10058;57.654;12.044;2023-03-01T06:01:13;102343.22;;;-0.45;100.00
19797;BME280;10058;57.654;12.044;2023-03-01T06:03:38;102350.13;;;-0.54;100.00
19797;BME280;10058;57.654;12.044;2023-03-01T06:06:04;102346.88;;;-0.52;100.00
19797;BME280;10058;57.654;12.044;2023-03-01T06:08:29;102352.84;;;-0.44;100.00
19797;BME280;10058;57.654;12.044;2023-03-01T06:10:55;102341.44;;;-0.63;100.00
19797;BME280;10058;57.654;12.044;2023-03-01T06:13:21;102361.75;;;-0.59;100.00
19797;BME280;10058;57.654;12.044;2023-03-01T06:15:48;102374.63;;;-0.69;100.00
19797;BME280;10058;57.654;12.044;2023-03-01T06:18:14;102364.81;;;-0.63;100.00
19797;BME280;10058;57.654;12.044;2023-03-01T06:20:39;102369.44;;;-0.69;100.00
19797;BME280;10058;57.654;12.044;2023-03-01T06:23:04;102378.25;;;-0.67;100.00
19797;BME280;10058;57.654;12.044;2023-03-01T06:25:29;102380.69;;;-0.60;100.00
19797;BME280;10058;57.654;12.044;2023-03-01T06:27:55;102383.13;;;-0.62;100.00
19797;BME280;10058;57.654;12.044;2023-03-01T06:30:22;102390.47;;;-0.58;100.00
19797;BME280;10058;57.654;12.044;2023-03-01T06:32:48;102394.69;;;-0.41;100.00
19797;BME280;10058;57.654;12.044;2023-03-01T06:35:14;102392.81;;;-0.33;100.00
19797;BME280;10058;57.654;12.044;2023-03-01T06:37:42;102395.88;;;-0.20;100.00
19797;BME280;10058;57.654;12.044;2023-03-01T06:40:09;102396.13;;;-0.09;100.00
19797;BME280;10058;57.654;12.044;2023-03-01T06:42:36;102396.34;;;0.12;100.00
19797;BME280;10058;57.654;12.044;2023-03-01T06:45:03;102399.50;;;0.18;100.00
19797;BME280;10058;57.654;12.044;2023-03-01T06:47:29;102399.91;;;0.31;100.00
19797;BME280;10058;57.654;12.044;2023-03-01T06:49:54;102393.06;;;0.50;100.00
19797;BME280;10058;57.654;12.044;2023-03-01T06:52:19;102388.38;;;0.84;100.00
19797;BME280;10058;57.654;12.044;2023-03-01T06:54:45;102393.91;;;0.97;100.00
19797;BME280;10058;57.654;12.044;2023-03-01T06:57:10;102398.13;;;1.05;100.00
19797;BME280;10058;57.654;12.044;2023-03-01T06:59:35;102398.72;;;1.21;100.00
19797;BME280;10058;57.654;12.044;2023-03-01T07:02:00;102386.91;;;1.25;100.00
19797;BME280;10058;57.654;12.044;2023-03-01T07:04:26;102400.56;;;1.22;100.00
19797;BME280;10058;57.654;12.044;2023-03-01T07:06:53;102400.00;;;1.35;100.00
19797;BME280;10058;57.654;12.044;2023-03-01T07:09:21;102396.53;;;1.45;100.00
19797;BME280;10058;57.654;12.044;2023-03-01T07:11:47;102401.09;;;1.47;100.00
19797;BME280;10058;57.654;12.044;2023-03-01T07:14:13;102396.06;;;1.59;100.00
19797;BME280;10058;57.654;12.044;2023-03-01T07:16:38;102396.97;;;1.88;100.00
19797;BME280;10058;57.654;12.044;2023-03-01T07:19:03;102400.09;;;1.94;100.00
19797;BME280;10058;57.654;12.044;2023-03-01T07:21:30;102406.09;;;1.93;100.00
19797;BME280;10058;57.654;12.044;2023-03-01T07:23:55;102399.88;;;2.12;100.00
19797;BME280;10058;57.654;12.044;2023-03-01T07:26:21;102405.88;;;2.10;100.00
19797;BME280;10058;57.654;12.044;2023-03-01T07:28:46;102421.28;;;2.18;100.00
19797;BME280;10058;57.654;12.044;2023-03-01T07:31:11;102417.13;;;2.20;100.00
19797;BME280;10058;57.654;12.044;2023-03-01T07:33:36;102409.56;;;2.33;100.00
19797;BME280;10058;57.654;12.044;2023-03-01T07:36:03;102410.34;;;2.32;100.00
19797;BME280;10058;57.654;12.044;2023-03-01T07:38:29;102407.47;;;2.29;100.00
19797;BME280;10058;57.654;12.044;2023-03-01T07:40:58;102408.28;;;2.38;100.00
19797;BME280;10058;57.654;12.044;2023-03-01T07:43:24;102410.63;;;2.35;100.00
19797;BME280;10058;57.654;12.044;2023-03-01T07:45:49;102406.47;;;2.57;100.00
19797;BME280;10058;57.654;12.044;2023-03-01T07:48:14;102413.50;;;2.48;100.00
19797;BME280;10058;57.654;12.044;2023-03-01T07:50:40;102411.28;;;2.53;100.00
19797;BME280;10058;57.654;12.044;2023-03-01T07:53:05;102413.50;;;2.58;100.00
19797;BME280;10058;57.654;12.044;2023-03-01T07:55:30;102423.44;;;2.72;100.00
19797;BME280;10058;57.654;12.044;2023-03-01T07:57:55;102419.38;;;2.76;100.00
19797;BME280;10058;57.654;12.044;2023-03-01T08:00:21;102425.00;;;2.70;100.00
19797;BME280;10058;57.654;12.044;2023-03-01T08:02:46;102432.03;;;2.71;100.00
19797;BME280;10058;57.654;12.044;2023-03-01T08:05:11;102430.59;;;2.85;100.00
19797;BME280;10058;57.654;12.044;2023-03-01T08:07:37;102424.19;;;3.02;100.00
19797;BME280;10058;57.654;12.044;2023-03-01T08:10:02;102427.84;;;3.04;100.00
19797;BME280;10058;57.654;12.044;2023-03-01T08:12:28;102424.28;;;3.24;100.00
19797;BME280;10058;57.654;12.044;2023-03-01T08:14:54;102431.03;;;3.32;100.00
19797;BME280;10058;57.654;12.044;2023-03-01T08:17:19;102428.03;;;3.37;100.00
19797;BME280;10058;57.654;12.044;2023-03-01T08:19:44;102436.13;;;3.40;100.00
19797;BME280;10058;57.654;12.044;2023-03-01T08:22:10;102428.78;;;3.46;100.00
19797;BME280;10058;57.654;12.044;2023-03-01T08:24:35;102431.84;;;3.73;100.00
19797;BME280;10058;57.654;12.044;2023-03-01T08:27:00;102422.22;;;3.62;100.00
19797;BME280;10058;57.654;12.044;2023-03-01T08:29:28;102428.69;;;3.77;100.00
19797;BME280;10058;57.654;12.044;2023-03-01T08:31:55;102435.66;;;3.98;100.00
19797;BME280;10058;57.654;12.044;2023-03-01T08:34:20;102424.94;;;3.95;100.00
19797;BME280;10058;57.654;12.044;2023-03-01T08:36:46;102422.50;;;4.08;100.00
19797;BME280;10058;57.654;12.044;2023-03-01T08:39:14;102416.78;;;4.02;100.00
19797;BME280;10058;57.654;12.044;2023-03-01T08:41:40;102417.78;;;4.14;100.00
19797;BME280;10058;57.654;12.044;2023-03-01T08:44:07;102418.75;;;4.27;100.00
19797;BME280;10058;57.654;12.044;2023-03-01T08:46:36;102422.50;;;4.08;100.00
19797;BME280;10058;57.654;12.044;2023-03-01T08:49:06;102434.13;;;4.34;100.00
19797;BME280;10058;57.654;12.044;2023-03-01T08:51:32;102436.03;;;4.25;100.00
19797;BME280;10058;57.654;12.044;2023-03-01T08:54:15;102437.22;;;4.40;100.00
19797;BME280;10058;57.654;12.044;2023-03-01T08:56:40;102432.94;;;4.52;100.00
19797;BME280;10058;57.654;12.044;2023-03-01T08:59:06;102434.56;;;4.50;100.00
19797;BME280;10058;57.654;12.044;2023-03-01T09:01:32;102430.50;;;4.65;100.00
19797;BME280;10058;57.654;12.044;2023-03-01T09:03:57;102434.72;;;4.63;100.00
19797;BME280;10058;57.654;12.044;2023-03-01T09:06:23;102435.97;;;4.68;100.00
19797;BME280;10058;57.654;12.044;2023-03-01T09:08:49;102420.97;;;4.77;100.00
19797;BME280;10058;57.654;12.044;2023-03-01T09:11:18;102425.31;;;4.88;100.00
19797;BME280;10058;57.654;12.044;2023-03-01T09:13:44;102429.09;;;4.92;100.00
19797;BME280;10058;57.654;12.044;2023-03-01T09:16:11;102413.97;;;5.00;100.00
19797;BME280;10058;57.654;12.044;2023-03-01T09:18:37;102418.06;;;5.08;100.00
19797;BME280;10058;57.654;12.044;2023-03-01T09:23:44;102413.72;;;5.08;100.00
19797;BME280;10058;57.654;12.044;2023-03-01T09:26:20;102405.97;;;5.21;100.00
19797;BME280;10058;57.654;12.044;2023-03-01T09:28:48;102408.88;;;5.36;100.00
19797;BME280;10058;57.654;12.044;2023-03-01T09:31:15;102416.78;;;5.03;100.00
19797;BME280;10058;57.654;12.044;2023-03-01T09:33:41;102391.53;;;5.15;100.00
19797;BME280;10058;57.654;12.044;2023-03-01T09:36:11;102401.22;;;5.16;100.00
19797;BME280;10058;57.654;12.044;2023-03-01T09:38:37;102403.63;;;5.36;100.00
19797;BME280;10058;57.654;12.044;2023-03-01T09:41:09;102402.44;;;5.56;100.00
19797;BME280;10058;57.654;12.044;2023-03-01T09:46:30;102394.25;;;5.40;100.00
19797;BME280;10058;57.654;12.044;2023-03-01T09:49:05;102390.72;;;5.51;100.00
19797;BME280;10058;57.654;12.044;2023-03-01T09:51:36;102393.00;;;5.70;100.00
19797;BME280;10058;57.654;12.044;2023-03-01T09:54:03;102398.25;;;5.70;100.00
19797;BME280;10058;57.654;12.044;2023-03-01T09:56:39;102397.09;;;5.66;100.00
19797;BME280;10058;57.654;12.044;2023-03-01T09:59:30;102401.16;;;5.86;100.00
19797;BME280;10058;57.654;12.044;2023-03-01T10:02:23;102388.41;;;5.55;100.00
19797;BME280;10058;57.654;12.044;2023-03-01T10:04:54;102403.00;;;5.87;100.00
19797;BME280;10058;57.654;12.044;2023-03-01T10:07:40;102405.63;;;5.99;100.00
19797;BME280;10058;57.654;12.044;2023-03-01T10:10:10;102405.84;;;6.26;100.00
19797;BME280;10058;57.654;12.044;2023-03-01T10:12:41;102395.56;;;6.29;100.00
19797;BME280;10058;57.654;12.044;2023-03-01T10:15:15;102380.28;;;6.24;100.00
19797;BME280;10058;57.654;12.044;2023-03-01T10:17:57;102387.06;;;6.45;100.00
19797;BME280;10058;57.654;12.044;2023-03-01T10:20:30;102381.31;;;6.51;100.00
19797;BME280;10058;57.654;12.044;2023-03-01T10:22:59;102375.25;;;6.52;100.00
19797;BME280;10058;57.654;12.044;2023-03-01T10:28:06;102383.44;;;6.81;100.00
19797;BME280;10058;57.654;12.044;2023-03-01T10:30:39;102384.44;;;6.83;100.00
19797;BME280;10058;57.654;12.044;2023-03-01T10:33:32;102384.88;;;6.89;100.00
19797;BME280;10058;57.654;12.044;2023-03-01T10:36:00;102374.16;;;6.99;100.00
19797;BME280;10058;57.654;12.044;2023-03-01T10:38:25;102368.19;;;6.89;100.00
19797;BME280;10058;57.654;12.044;2023-03-01T10:40:59;102377.19;;;6.92;100.00
19797;BME280;10058;57.654;12.044;2023-03-01T10:43:31;102389.31;;;6.90;100.00
19797;BME280;10058;57.654;12.044;2023-03-01T10:46:22;102383.84;;;6.87;100.00
19797;BME280;10058;57.654;12.044;2023-03-01T10:49:05;102367.44;;;6.78;100.00
19797;BME280;10058;57.654;12.044;2023-03-01T10:51:31;102380.81;;;6.94;100.00
19797;BME280;10058;57.654;12.044;2023-03-01T10:53:57;102386.28;;;7.11;100.00
19797;BME280;10058;57.654;12.044;2023-03-01T10:56:22;102387.94;;;7.09;100.00
19797;BME280;10058;57.654;12.044;2023-03-01T10:59:05;;;;7.03;
19797;BME280;10058;57.654;12.044;2023-03-01T11:01:42;102381.88;;;7.10;100.00
19797;BME280;10058;57.654;12.044;2023-03-01T11:06:37;102368.72;;;7.49;100.00
19797;BME280;10058;57.654;12.044;2023-03-01T11:09:18;102368.72;;;7.49;100.00
19797;BME280;10058;57.654;12.044;2023-03-01T11:11:44;102371.75;;;7.29;100.00
19797;BME280;10058;57.654;12.044;2023-03-01T11:14:18;102363.84;;;7.16;100.00
19797;BME280;10058;57.654;12.044;2023-03-01T11:16:48;102362.66;;;7.37;100.00
19797;BME280;10058;57.654;12.044;2023-03-01T11:19:17;102370.75;;;7.27;100.00
19797;BME280;10058;57.654;12.044;2023-03-01T11:22:17;102370.94;;;7.56;100.00
19797;BME280;10058;57.654;12.044;2023-03-01T11:24:46;102372.56;;;7.54;100.00
19797;BME280;10058;57.654;12.044;2023-03-01T11:27:23;102356.47;;;7.37;100.00
19797;BME280;10058;57.654;12.044;2023-03-01T11:30:23;102371.78;;;7.42;100.00
19797;BME280;10058;57.654;12.044;2023-03-01T11:32:57;102373.69;;;7.58;100.00
19797;BME280;10058;57.654;12.044;2023-03-01T11:35:27;102362.53;;;7.49;100.00
19797;BME280;10058;57.654;12.044;2023-03-01T11:38:12;102360.50;;;7.71;100.00
19797;BME280;10058;57.654;12.044;2023-03-01T11:40:44;102360.28;;;7.68;100.00
19797;BME280;10058;57.654;12.044;2023-03-01T11:43:20;102359.53;;;7.84;100.00
19797;BME280;10058;57.654;12.044;2023-03-01T11:48:32;102346.31;;;8.10;100.00
19797;BME280;10058;57.654;12.044;2023-03-01T11:51:05;102337.22;;;8.05;100.00
19797;BME280;10058;57.654;12.044;2023-03-01T11:53:52;102333.34;;;8.41;100.00
19797;BME280;10058;57.654;12.044;2023-03-01T11:56:31;102328.28;;;8.44;100.00
19797;BME280;10058;57.654;12.044;2023-03-01T11:59:41;102344.59;;;8.38;100.00
19797;BME280;10058;57.654;12.044;2023-03-01T12:05:35;102328.28;;;8.59;100.00
19797;BME280;10058;57.654;12.044;2023-03-01T12:08:17;102321.91;;;8.55;100.00
19797;BME280;10058;57.654;12.044;2023-03-01T12:11:02;102310.34;;;8.38;100.00
19797;BME280;10058;57.654;12.044;2023-03-01T12:13:54;102324.03;;;8.33;100.00
19797;BME280;10058;57.654;12.044;2023-03-01T12:19:25;102326.28;;;8.55;100.00
19797;BME280;10058;57.654;12.044;2023-03-01T12:22:02;102316.66;;;8.70;100.00
19797;BME280;10058;57.654;12.044;2023-03-01T12:30:25;102323.53;;;8.68;100.00
19797;BME280;10058;57.654;12.044;2023-03-01T12:36:20;102304.09;;;8.95;100.00
19797;BME280;10058;57.654;12.044;2023-03-01T12:39:03;102305.09;;;8.97;100.00
19797;BME280;10058;57.654;12.044;2023-03-01T12:41:43;102297.34;;;9.15;100.00
19797;BME280;10058;57.654;12.044;2023-03-01T12:44:35;102301.38;;;8.94;100.00
19797;BME280;10058;57.654;12.044;2023-03-01T12:47:30;102296.44;;;9.15;100.00
19797;BME280;10058;57.654;12.044;2023-03-01T12:50:03;102293.53;;;9.10;100.00
19797;BME280;10058;57.654;12.044;2023-03-01T12:52:44;102286.13;;;9.34;100.00
19797;BME280;10058;57.654;12.044;2023-03-01T12:55:39;102290.03;;;9.26;100.00
19797;BME280;10058;57.654;12.044;2023-03-01T13:03:48;102268.31;;;9.46;100.00
19797;BME280;10058;57.654;12.044;2023-03-01T13:06:23;102263.66;;;9.26;100.00
19797;BME280;10058;57.654;12.044;2023-03-01T13:09:05;102262.41;;;9.50;100.00
19797;BME280;10058;57.654;12.044;2023-03-01T13:11:32;102263.22;;;9.49;100.00
19797;BME280;10058;57.654;12.044;2023-03-01T13:16:48;102258.03;;;9.67;100.00
19797;BME280;10058;57.654;12.044;2023-03-01T13:19:21;102255.78;;;9.42;100.00
19797;BME280;10058;57.654;12.044;2023-03-01T13:21:49;102247.50;;;9.36;100.00
19797;BME280;10058;57.654;12.044;2023-03-01T13:24:39;102253.28;;;9.29;100.00
19797;BME280;10058;57.654;12.044;2023-03-01T13:32:31;102242.84;;;9.47;100.00
19797;BME280;10058;57.654;12.044;2023-03-01T13:37:50;102242.75;;;9.45;100.00
19797;BME280;10058;57.654;12.044;2023-03-01T13:42:43;102235.63;;;9.28;100.00
19797;BME280;10058;57.654;12.044;2023-03-01T13:45:41;102236.59;;;9.14;100.00
19797;BME280;10058;57.654;12.044;2023-03-01T13:48:26;102237.47;;;9.45;100.00